sensor_id;sensor_type;location;lat;lon;timestamp;pressure;altitude;pressure_sealevel;temperature;humidity
21276;BME280;36472;52.170;20.884;2023-02-19T00:00:06;99910.22;;;4.79;79.64
21276;BME280;36472;52.170;20.884;2023-02-19T00:02:59;99908.22;;;4.84;78.70
21276;BME280;36472;52.170;20.884;2023-02-19T00:05:30;99894.19;;;4.86;78.23
21276;BME280;36472;52.170;20.884;2023-02-19T00:07:59;99900.41;;;4.84;78.05
21276;BME280;36472;52.170;20.884;2023-02-19T00:10:28;99893.97;;;4.91;78.25
21276;BME280;36472;52.170;20.884;2023-02-19T00:12:57;99906.91;;;4.93;78.06
21276;BME280;36472;52.170;20.884;2023-02-19T00:15:26;99900.63;;;4.97;77.94
21276;BME280;36472;52.170;20.884;2023-02-19T00:17:55;99901.41;;;4.99;78.20
21276;BME280;36472;52.170;20.884;2023-02-19T00:20:24;99900.41;;;5.01;78.15
21276;BME280;36472;52.170;20.884;2023-02-19T00:22:54;99903.09;;;5.00;78.54
21276;BME280;36472;52.170;20.884;2023-02-19T00:25:23;99896.91;;;5.02;78.68
21276;BME280;36472;52.170;20.884;2023-02-19T00:27:52;99897.56;;;5.06;78.68
21276;BME280;36472;52.170;20.884;2023-02-19T00:30:23;99891.50;;;5.05;79.25
21276;BME280;36472;52.170;20.884;2023-02-19T00:32:51;99902.88;;;5.04;79.18
21276;BME280;36472;52.170;20.884;2023-02-19T00:35:22;99906.22;;;5.06;79.53
21276;BME280;36472;52.170;20.884;2023-02-19T00:37:51;99900.09;;;5.08;79.70
21276;BME280;36472;52.170;20.884;2023-02-19T00:40:21;99892.13;;;5.11;79.14
21276;BME280;36472;52.170;20.884;2023-02-19T00:42:53;99899.16;;;5.09;78.99
21276;BME280;36472;52.170;20.884;2023-02-19T00:45:22;99903.25;;;5.14;78.31
21276;BME280;36472;52.170;20.884;2023-02-19T00:47:51;99892.72;;;5.16;77.39
21276;BME280;36472;52.170;20.884;2023-02-19T00:50:21;99888.22;;;5.19;77.64
21276;BME280;36472;52.170;20.884;2023-02-19T00:52:50;99896.03;;;5.19;76.95
21276;BME280;36472;52.170;20.884;2023-02-19T00:55:19;99904.16;;;5.13;76.47
21276;BME280;36472;52.170;20.884;2023-02-19T00:57:49;99909.50;;;5.10;76.64
21276;BME280;36472;52.170;20.884;2023-02-19T01:00:18;99901.47;;;5.15;77.10
21276;BME280;36472;52.170;20.884;2023-02-19T01:02:47;99902.91;;;5.20;77.39
21276;BME280;36472;52.170;20.884;2023-02-19T01:05:16;99905.53;;;5.20;76.97
21276;BME280;36472;52.170;20.884;2023-02-19T01:07:45;99910.06;;;5.17;77.29
21276;BME280;36472;52.170;20.884;2023-02-19T01:10:15;99892.41;;;5.22;76.26
21276;BME280;36472;52.170;20.884;2023-02-19T01:12:43;99896.94;;;5.18;75.95
21276;BME280;36472;52.170;20.884;2023-02-19T01:15:14;99889.06;;;5.20;75.54
21276;BME280;36472;52.170;20.884;2023-02-19T01:17:43;99884.38;;;5.27;75.68
21276;BME280;36472;52.170;20.884;2023-02-19T01:20:12;99886.03;;;5.28;75.72
21276;BME280;36472;52.170;20.884;2023-02-19T01:22:41;99885.91;;;5.31;75.55
21276;BME280;36472;52.170;20.884;2023-02-19T01:25:10;99881.69;;;5.28;75.86
21276;BME280;36472;52.170;20.884;2023-02-19T01:27:39;99892.13;;;5.28;75.63
21276;BME280;36472;52.170;20.884;2023-02-19T01:30:09;99885.97;;;5.29;76.17
21276;BME280;36472;52.170;20.884;2023-02-19T01:32:40;99880.75;;;5.29;76.47
21276;BME280;36472;52.170;20.884;2023-02-19T01:35:09;99881.63;;;5.30;76.08
21276;BME280;36472;52.170;20.884;2023-02-19T01:37:38;99875.81;;;5.24;76.44
21276;BME280;36472;52.170;20.884;2023-02-19T01:40:08;99886.75;;;5.31;75.76
21276;BME280;36472;52.170;20.884;2023-02-19T01:42:42;99896.56;;;5.26;75.17
21276;BME280;36472;52.170;20.884;2023-02-19T01:45:24;99889.59;;;5.27;74.75
21276;BME280;36472;52.170;20.884;2023-02-19T01:48:09;99888.50;;;5.31;75.21
21276;BME280;36472;52.170;20.884;2023-02-19T01:50:45;99891.19;;;5.29;74.43
21276;BME280;36472;52.170;20.884;2023-02-19T01:53:20;99892.94;;;5.29;74.68
21276;BME280;36472;52.170;20.884;2023-02-19T01:55:55;99887.59;;;5.32;74.58
21276;BME280;36472;52.170;20.884;2023-02-19T01:58:30;99884.38;;;5.27;74.51
21276;BME280;36472;52.170;20.884;2023-02-19T02:01:05;99887.81;;;5.27;74.51
21276;BME280;36472;52.170;20.884;2023-02-19T02:03:39;99894.66;;;5.30;74.67
21276;BME280;36472;52.170;20.884;2023-02-19T02:06:16;99887.75;;;5.29;74.93
21276;BME280;36472;52.170;20.884;2023-02-19T02:08:50;99898.31;;;5.25;75.40
21276;BME280;36472;52.170;20.884;2023-02-19T02:11:41;99892.94;;;5.29;75.42
21276;BME280;36472;52.170;20.884;2023-02-19T02:14:12;99889.59;;;5.27;75.92
21276;BME280;36472;52.170;20.884;2023-02-19T02:16:53;99889.25;;;5.33;75.76
21276;BME280;36472;52.170;20.884;2023-02-19T02:19:55;99887.97;;;5.24;76.37
21276;BME280;36472;52.170;20.884;2023-02-19T02:22:36;99885.50;;;5.21;77.10
21276;BME280;36472;52.170;20.884;2023-02-19T02:25:54;99899.41;;;5.21;77.25
21276;BME280;36472;52.170;20.884;2023-02-19T02:31:46;99893.31;;;5.21;77.73
21276;BME280;36472;52.170;20.884;2023-02-19T02:34:23;99892.28;;;5.25;77.86
21276;BME280;36472;52.170;20.884;2023-02-19T02:36:56;99903.00;;;5.19;78.28
21276;BME280;36472;52.170;20.884;2023-02-19T02:39:29;99905.00;;;5.14;78.82
21276;BME280;36472;52.170;20.884;2023-02-19T02:42:00;99900.78;;;5.11;79.28
21276;BME280;36472;52.170;20.884;2023-02-19T02:44:57;99896.41;;;5.12;79.38
21276;BME280;36472;52.170;20.884;2023-02-19T02:48:17;99889.63;;;5.09;79.89
21276;BME280;36472;52.170;20.884;2023-02-19T02:50:55;99897.44;;;5.09;79.73
21276;BME280;36472;52.170;20.884;2023-02-19T02:53:35;99891.44;;;5.07;79.52
21276;BME280;36472;52.170;20.884;2023-02-19T02:56:25;99895.81;;;5.06;79.46
21276;BME280;36472;52.170;20.884;2023-02-19T02:58:57;99880.25;;;5.05;79.24
21276;BME280;36472;52.170;20.884;2023-02-19T03:01:34;99881.09;;;5.05;79.11
21276;BME280;36472;52.170;20.884;2023-02-19T03:04:35;99868.84;;;5.08;79.17
21276;BME280;36472;52.170;20.884;2023-02-19T03:07:34;99869.84;;;5.05;78.71
21276;BME280;36472;52.170;20.884;2023-02-19T03:10:09;99876.75;;;5.06;78.46
21276;BME280;36472;52.170;20.884;2023-02-19T03:12:42;99875.38;;;4.99;78.58
21276;BME280;36472;52.170;20.884;2023-02-19T03:15:37;99871.69;;;5.03;78.41
21276;BME280;36472;52.170;20.884;2023-02-19T03:18:28;99875.88;;;5.05;78.60
21276;BME280;36472;52.170;20.884;2023-02-19T03:21:21;99888.06;;;5.05;77.93
21276;BME280;36472;52.170;20.884;2023-02-19T03:23:52;99880.31;;;5.03;77.87
21276;BME280;36472;52.170;20.884;2023-02-19T03:26:42;99886.63;;;4.99;76.96
21276;BME280;36472;52.170;20.884;2023-02-19T03:29:26;99886.09;;;4.93;76.91
21276;BME280;36472;52.170;20.884;2023-02-19T03:32:05;99879.72;;;4.98;77.04
21276;BME280;36472;52.170;20.884;2023-02-19T03:34:41;99879.78;;;4.97;76.60
21276;BME280;36472;52.170;20.884;2023-02-19T03:37:19;99878.41;;;4.90;76.36
21276;BME280;36472;52.170;20.884;2023-02-19T03:39:58;99875.06;;;4.87;76.64
21276;BME280;36472;52.170;20.884;2023-02-19T03:42:40;99866.41;;;4.87;76.00
21276;BME280;36472;52.170;20.884;2023-02-19T03:45:37;99870.75;;;4.86;76.28
21276;BME280;36472;52.170;20.884;2023-02-19T03:48:26;99866.03;;;4.77;76.37
21276;BME280;36472;52.170;20.884;2023-02-19T03:51:28;99855.59;;;4.77;75.63
21276;BME280;36472;52.170;20.884;2023-02-19T03:54:14;99851.63;;;4.70;75.49
21276;BME280;36472;52.170;20.884;2023-02-19T03:56:52;99851.09;;;4.63;75.83
21276;BME280;36472;52.170;20.884;2023-02-19T03:59:31;99857.75;;;4.69;76.02
21276;BME280;36472;52.170;20.884;2023-02-19T04:02:07;99843.97;;;4.67;75.69
21276;BME280;36472;52.170;20.884;2023-02-19T04:04:43;99856.22;;;4.65;75.80
21276;BME280;36472;52.170;20.884;2023-02-19T04:07:14;99860.81;;;4.60;75.82
21276;BME280;36472;52.170;20.884;2023-02-19T04:09:47;99860.19;;;4.55;75.83
21276;BME280;36472;52.170;20.884;2023-02-19T04:12:21;99847.31;;;4.52;75.97
21276;BME280;36472;52.170;20.884;2023-02-19T04:14:56;99851.31;;;4.59;75.90
21276;BME280;36472;52.170;20.884;2023-02-19T04:17:35;99843.72;;;4.54;76.05
21276;BME280;36472;52.170;20.884;2023-02-19T04:20:09;99838.28;;;4.59;76.31
21276;BME280;36472;52.170;20.884;2023-02-19T04:22:39;99840.81;;;4.60;76.26
21276;BME280;36472;52.170;20.884;2023-02-19T04:25:10;99840.59;;;4.65;76.21
21276;BME280;36472;52.170;20.884;2023-02-19T04:27:40;99833.69;;;4.64;75.79
21276;BME280;36472;52.170;20.884;2023-02-19T04:30:13;99838.22;;;4.60;76.24
21276;BME280;36472;52.170;20.884;2023-02-19T04:32:42;99834.16;;;4.55;76.18
21276;BME280;36472;52.170;20.884;2023-02-19T04:35:11;99833.38;;;4.53;76.60
21276;BME280;36472;52.170;20.884;2023-02-19T04:37:40;99835.00;;;4.55;76.79
21276;BME280;36472;52.170;20.884;2023-02-19T04:40:11;99822.91;;;4.54;76.52
21276;BME280;36472;52.170;20.884;2023-02-19T04:42:40;99824.66;;;4.54;76.38
21276;BME280;36472;52.170;20.884;2023-02-19T04:45:09;99829.25;;;4.48;76.73
21276;BME280;36472;52.170;20.884;2023-02-19T04:47:38;99829.94;;;4.52;76.61
21276;BME280;36472;52.170;20.884;2023-02-19T04:50:07;99839.38;;;4.55;76.95
21276;BME280;36472;52.170;20.884;2023-02-19T04:52:36;99845.56;;;4.52;76.67
21276;BME280;36472;52.170;20.884;2023-02-19T04:55:07;99839.59;;;4.50;77.13
21276;BME280;36472;52.170;20.884;2023-02-19T04:57:37;99837.97;;;4.47;77.10
21276;BME280;36472;52.170;20.884;2023-02-19T05:00:09;99818.38;;;4.40;77.19
21276;BME280;36472;52.170;20.884;2023-02-19T05:02:38;99825.13;;;4.44;77.04
21276;BME280;36472;52.170;20.884;2023-02-19T05:05:07;99824.19;;;4.45;77.27
21276;BME280;36472;52.170;20.884;2023-02-19T05:07:36;99829.41;;;4.45;77.38
21276;BME280;36472;52.170;20.884;2023-02-19T05:10:06;99827.03;;;4.41;77.37
21276;BME280;36472;52.170;20.884;2023-02-19T05:12:36;99823.66;;;4.39;77.79
21276;BME280;36472;52.170;20.884;2023-02-19T05:15:06;99823.16;;;4.49;77.40
21276;BME280;36472;52.170;20.884;2023-02-19T05:17:35;99824.88;;;4.49;77.62
21276;BME280;36472;52.170;20.884;2023-02-19T05:20:05;99816.47;;;4.44;78.10
21276;BME280;36472;52.170;20.884;2023-02-19T05:22:34;99822.34;;;4.47;78.06
21276;BME280;36472;52.170;20.884;2023-02-19T05:25:04;99815.47;;;4.46;77.76
21276;BME280;36472;52.170;20.884;2023-02-19T05:27:33;99829.13;;;4.52;77.74
21276;BME280;36472;52.170;20.884;2023-02-19T05:30:04;99825.97;;;4.45;77.92
21276;BME280;36472;52.170;20.884;2023-02-19T05:32:34;99814.56;;;4.47;78.08
21276;BME280;36472;52.170;20.884;2023-02-19T05:35:04;99807.59;;;4.48;78.24
21276;BME280;36472;52.170;20.884;2023-02-19T05:37:33;99805.84;;;4.48;77.70
21276;BME280;36472;52.170;20.884;2023-02-19T05:40:02;99810.22;;;4.48;78.02
21276;BME280;36472;52.170;20.884;2023-02-19T05:42:31;99808.38;;;4.50;77.79
21276;BME280;36472;52.170;20.884;2023-02-19T05:45:00;99814.25;;;4.54;77.94
21276;BME280;36472;52.170;20.884;2023-02-19T05:47:30;99811.66;;;4.54;78.20
21276;BME280;36472;52.170;20.884;2023-02-19T05:49:59;99806.44;;;4.54;78.11
21276;BME280;36472;52.170;20.884;2023-02-19T05:52:28;99808.16;;;4.55;77.87
21276;BME280;36472;52.170;20.884;2023-02-19T05:54:57;99811.66;;;4.54;78.24
21276;BME280;36472;52.170;20.884;2023-02-19T05:57:26;99813.56;;;4.50;78.14
21276;BME280;36472;52.170;20.884;2023-02-19T05:59:56;99816.72;;;4.57;77.74
21276;BME280;36472;52.170;20.884;2023-02-19T06:02:25;99819.94;;;4.62;77.48
21276;BME280;36472;52.170;20.884;2023-02-19T06:04:55;99810.34;;;4.62;77.58
21276;BME280;36472;52.170;20.884;2023-02-19T06:07:24;99809.66;;;4.59;77.51
21276;BME280;36472;52.170;20.884;2023-02-19T06:09:53;99813.81;;;4.63;77.44
21276;BME280;36472;52.170;20.884;2023-02-19T06:12:22;99811.50;;;4.57;77.66
21276;BME280;36472;52.170;20.884;2023-02-19T06:14:51;99818.38;;;4.58;77.95
21276;BME280;36472;52.170;20.884;2023-02-19T06:17:20;99825.97;;;4.62;78.01
21276;BME280;36472;52.170;20.884;2023-02-19T06:19:49;99819.84;;;4.63;77.84
21276;BME280;36472;52.170;20.884;2023-02-19T06:22:20;99829.31;;;4.64;77.71
21276;BME280;36472;52.170;20.884;2023-02-19T06:24:49;99832.66;;;4.68;77.53
21276;BME280;36472;52.170;20.884;2023-02-19T06:27:18;99830.03;;;4.68;77.48
21276;BME280;36472;52.170;20.884;2023-02-19T06:29:47;99840.53;;;4.66;77.57
21276;BME280;36472;52.170;20.884;2023-02-19T06:32:17;99836.84;;;4.71;77.83
21276;BME280;36472;52.170;20.884;2023-02-19T06:34:46;99831.88;;;4.66;77.94
21276;BME280;36472;52.170;20.884;2023-02-19T06:37:15;99834.09;;;4.74;78.04
21276;BME280;36472;52.170;20.884;2023-02-19T06:39:45;99834.78;;;4.77;77.35
21276;BME280;36472;52.170;20.884;2023-02-19T06:42:14;99834.63;;;4.80;77.52
21276;BME280;36472;52.170;20.884;2023-02-19T06:44:43;99827.72;;;4.79;77.41
21276;BME280;36472;52.170;20.884;2023-02-19T06:47:12;99834.03;;;4.75;77.54
21276;BME280;36472;52.170;20.884;2023-02-19T06:49:41;99819.00;;;4.80;77.71
21276;BME280;36472;52.170;20.884;2023-02-19T06:52:10;99821.91;;;4.92;77.49
21276;BME280;36472;52.170;20.884;2023-02-19T06:54:39;99834.47;;;5.01;77.78
21276;BME280;36472;52.170;20.884;2023-02-19T06:57:09;99833.38;;;5.05;76.81
21276;BME280;36472;52.170;20.884;2023-02-19T06:59:38;99838.72;;;5.02;76.96
21276;BME280;36472;52.170;20.884;2023-02-19T07:02:10;99841.41;;;5.00;77.04
21276;BME280;36472;52.170;20.884;2023-02-19T07:04:39;99839.97;;;4.95;76.39
21276;BME280;36472;52.170;20.884;2023-02-19T07:07:10;99848.94;;;4.89;76.69
21276;BME280;36472;52.170;20.884;2023-02-19T07:09:39;99840.31;;;4.89;77.29
21276;BME280;36472;52.170;20.884;2023-02-19T07:12:10;99854.16;;;4.89;77.32
21276;BME280;36472;52.170;20.884;2023-02-19T07:14:38;99847.78;;;4.95;77.11
21276;BME280;36472;52.170;20.884;2023-02-19T07:17:07;99853.81;;;4.95;77.24
21276;BME280;36472;52.170;20.884;2023-02-19T07:19:36;99847.19;;;4.90;77.17
21276;BME280;36472;52.170;20.884;2023-02-19T07:22:05;99849.78;;;4.90;76.81
21276;BME280;36472;52.170;20.884;2023-02-19T07:24:34;99851.41;;;4.92;77.11
21276;BME280;36472;52.170;20.884;2023-02-19T07:27:03;99844.34;;;4.94;77.50
21276;BME280;36472;52.170;20.884;2023-02-19T07:29:33;99847.03;;;4.93;77.09
21276;BME280;36472;52.170;20.884;2023-02-19T07:32:03;99851.16;;;4.97;77.00
21276;BME280;36472;52.170;20.884;2023-02-19T07:34:32;99858.72;;;5.01;77.18
21276;BME280;36472;52.170;20.884;2023-02-19T07:37:01;99856.28;;;4.98;76.84
21276;BME280;36472;52.170;20.884;2023-02-19T07:39:30;99850.09;;;5.01;76.78
21276;BME280;36472;52.170;20.884;2023-02-19T07:41:59;99849.16;;;5.02;76.72
21276;BME280;36472;52.170;20.884;2023-02-19T07:44:33;99850.91;;;5.01;76.32
21276;BME280;36472;52.170;20.884;2023-02-19T07:47:02;99851.44;;;5.08;76.27
21276;BME280;36472;52.170;20.884;2023-02-19T07:49:30;99858.03;;;5.15;76.31
21276;BME280;36472;52.170;20.884;2023-02-19T07:52:00;99864.94;;;5.16;76.37
21276;BME280;36472;52.170;20.884;2023-02-19T07:54:29;99854.44;;;5.18;76.05
21276;BME280;36472;52.170;20.884;2023-02-19T07:56:58;99855.41;;;5.15;76.04
21276;BME280;36472;52.170;20.884;2023-02-19T07:59:27;99851.56;;;5.22;76.00
21276;BME280;36472;52.170;20.884;2023-02-19T08:01:57;99857.03;;;5.18;75.72
21276;BME280;36472;52.170;20.884;2023-02-19T08:04:45;99867.69;;;5.13;75.89
21276;BME280;36472;52.170;20.884;2023-02-19T08:07:15;99867.47;;;5.18;75.64
21276;BME280;36472;52.170;20.884;2023-02-19T08:09:45;99864.19;;;5.14;75.94
21276;BME280;36472;52.170;20.884;2023-02-19T08:12:34;99872.50;;;5.21;75.54
21276;BME280;36472;52.170;20.884;2023-02-19T08:15:19;99870.06;;;5.18;75.77
21276;BME280;36472;52.170;20.884;2023-02-19T08:17:50;99874.88;;;5.25;76.32
21276;BME280;36472;52.170;20.884;2023-02-19T08:20:19;99877.09;;;5.33;75.92
21276;BME280;36472;52.170;20.884;2023-02-19T08:22:48;99882.84;;;5.22;75.67
21276;BME280;36472;52.170;20.884;2023-02-19T08:25:17;99880.16;;;5.24;75.19
21276;BME280;36472;52.170;20.884;2023-02-19T08:27:46;99875.09;;;5.21;75.73
21276;BME280;36472;52.170;20.884;2023-02-19T08:30:15;99870.59;;;5.24;75.26
21276;BME280;36472;52.170;20.884;2023-02-19T08:32:45;99880.84;;;5.28;75.31
21276;BME280;36472;52.170;20.884;2023-02-19T08:35:15;99885.06;;;5.30;75.43
21276;BME280;36472;52.170;20.884;2023-02-19T08:37:44;99882.53;;;5.29;75.37
21276;BME280;36472;52.170;20.884;2023-02-19T08:40:13;99888.03;;;5.40;75.25
21276;BME280;36472;52.170;20.884;2023-02-19T08:42:43;99893.38;;;5.54;75.14
21276;BME280;36472;52.170;20.884;2023-02-19T08:45:11;99892.97;;;5.62;74.66
21276;BME280;36472;52.170;20.884;2023-02-19T08:47:41;99892.13;;;5.61;74.67
21276;BME280;36472;52.170;20.884;2023-02-19T08:50:10;99889.03;;;5.71;74.31
21276;BME280;36472;52.170;20.884;2023-02-19T08:52:40;99894.06;;;5.74;73.38
21276;BME280;36472;52.170;20.884;2023-02-19T08:55:09;99891.81;;;5.68;73.39
21276;BME280;36472;52.170;20.884;2023-02-19T08:57:39;99892.41;;;5.73;73.31
21276;BME280;36472;52.170;20.884;2023-02-19T09:00:09;99897.09;;;5.82;73.12
21276;BME280;36472;52.170;20.884;2023-02-19T09:02:39;99895.00;;;5.73;72.39
21276;BME280;36472;52.170;20.884;2023-02-19T09:05:09;99892.63;;;5.68;72.44
21276;BME280;36472;52.170;20.884;2023-02-19T09:07:40;99887.25;;;5.55;72.51
21276;BME280;36472;52.170;20.884;2023-02-19T09:10:11;99885.63;;;5.53;72.97
21276;BME280;36472;52.170;20.884;2023-02-19T09:12:41;99885.69;;;5.51;72.72
21276;BME280;36472;52.170;20.884;2023-02-19T09:15:11;99887.31;;;5.54;72.93
21276;BME280;36472;52.170;20.884;2023-02-19T09:17:40;99891.84;;;5.50;73.08
21276;BME280;36472;52.170;20.884;2023-02-19T09:20:10;99891.84;;;5.50;72.87
21276;BME280;36472;52.170;20.884;2023-02-19T09:22:40;99889.84;;;5.55;72.99
21276;BME280;36472;52.170;20.884;2023-02-19T09:25:09;99885.56;;;5.70;73.21
21276;BME280;36472;52.170;20.884;2023-02-19T09:27:38;99897.78;;;5.70;72.61
21276;BME280;36472;52.170;20.884;2023-02-19T09:30:08;99889.72;;;5.74;71.99
21276;BME280;36472;52.170;20.884;2023-02-19T09:32:37;99889.78;;;5.73;72.22
21276;BME280;36472;52.170;20.884;2023-02-19T09:35:06;99896.28;;;5.81;72.20
21276;BME280;36472;52.170;20.884;2023-02-19T09:37:35;99896.44;;;5.78;72.24
21276;BME280;36472;52.170;20.884;2023-02-19T09:40:07;99894.03;;;5.91;71.75
21276;BME280;36472;52.170;20.884;2023-02-19T09:42:40;99894.19;;;5.88;71.22
21276;BME280;36472;52.170;20.884;2023-02-19T09:45:20;99902.47;;;5.96;71.74
21276;BME280;36472;52.170;20.884;2023-02-19T09:47:53;99906.03;;;5.78;71.25
21276;BME280;36472;52.170;20.884;2023-02-19T09:50:33;99901.28;;;5.69;71.52
21276;BME280;36472;52.170;20.884;2023-02-19T09:53:11;99906.34;;;5.72;72.09
21276;BME280;36472;52.170;20.884;2023-02-19T09:55:45;99910.56;;;5.74;71.72
21276;BME280;36472;52.170;20.884;2023-02-19T09:58:23;99912.53;;;5.87;71.47
21276;BME280;36472;52.170;20.884;2023-02-19T10:00:57;99905.53;;;5.87;70.85
21276;BME280;36472;52.170;20.884;2023-02-19T10:03:29;99908.53;;;5.97;70.20
21276;BME280;36472;52.170;20.884;2023-02-19T10:06:05;99909.56;;;6.10;68.64
21276;BME280;36472;52.170;20.884;2023-02-19T10:08:39;99911.91;;;6.15;68.21
21276;BME280;36472;52.170;20.884;2023-02-19T10:11:12;99910.97;;;6.16;67.64
21276;BME280;36472;52.170;20.884;2023-02-19T10:13:47;99917.88;;;6.17;67.44
21276;BME280;36472;52.170;20.884;2023-02-19T10:16:21;99909.19;;;6.16;67.62
21276;BME280;36472;52.170;20.884;2023-02-19T10:18:52;99908.28;;;6.17;67.72
21276;BME280;36472;52.170;20.884;2023-02-19T10:21:26;99917.63;;;6.22;68.34
21276;BME280;36472;52.170;20.884;2023-02-19T10:24:00;99906.50;;;6.18;67.61
21276;BME280;36472;52.170;20.884;2023-02-19T10:26:31;99910.81;;;6.19;67.38
21276;BME280;36472;52.170;20.884;2023-02-19T10:29:04;99913.31;;;6.99;65.76
21276;BME280;36472;52.170;20.884;2023-02-19T10:31:33;99914.41;;;7.97;62.23
21276;BME280;36472;52.170;20.884;2023-02-19T10:34:03;99907.19;;;8.15;60.00
21276;BME280;36472;52.170;20.884;2023-02-19T10:36:38;99920.09;;;8.03;60.04
21276;BME280;36472;52.170;20.884;2023-02-19T10:39:33;99925.34;;;7.75;59.83
21276;BME280;36472;52.170;20.884;2023-02-19T10:42:18;99929.00;;;7.72;58.47
21276;BME280;36472;52.170;20.884;2023-02-19T10:44:53;99909.16;;;7.39;59.46
21276;BME280;36472;52.170;20.884;2023-02-19T10:47:26;99929.34;;;7.23;60.14
21276;BME280;36472;52.170;20.884;2023-02-19T10:49:58;99919.88;;;7.20;58.15
21276;BME280;36472;52.170;20.884;2023-02-19T10:52:33;99921.31;;;7.55;57.68
21276;BME280;36472;52.170;20.884;2023-02-19T10:55:25;99919.75;;;7.52;56.76
21276;BME280;36472;52.170;20.884;2023-02-19T10:57:57;99922.94;;;7.57;56.35
21276;BME280;36472;52.170;20.884;2023-02-19T11:00:28;99930.13;;;7.97;55.86
21276;BME280;36472;52.170;20.884;2023-02-19T11:03:19;99929.00;;;7.86;55.84
21276;BME280;36472;52.170;20.884;2023-02-19T11:05:58;99932.56;;;7.71;56.44
21276;BME280;36472;52.170;20.884;2023-02-19T11:08:29;99927.50;;;7.97;54.82
21276;BME280;36472;52.170;20.884;2023-02-19T11:11:03;99928.97;;;8.01;54.83
21276;BME280;36472;52.170;20.884;2023-02-19T11:13:34;99930.50;;;8.74;53.24
21276;BME280;36472;52.170;20.884;2023-02-19T11:16:05;99930.00;;;9.09;52.03
21276;BME280;36472;52.170;20.884;2023-02-19T11:18:34;99927.66;;;9.17;51.48
21276;BME280;36472;52.170;20.884;2023-02-19T11:21:05;99941.25;;;8.84;52.80
21276;BME280;36472;52.170;20.884;2023-02-19T11:23:42;99935.13;;;8.29;53.84
21276;BME280;36472;52.170;20.884;2023-02-19T11:26:18;99927.78;;;7.78;54.82
21276;BME280;36472;52.170;20.884;2023-02-19T11:28:56;99929.56;;;7.48;56.12
21276;BME280;36472;52.170;20.884;2023-02-19T11:31:29;99934.56;;;7.37;56.77
21276;BME280;36472;52.170;20.884;2023-02-19T11:34:00;99944.59;;;7.45;56.79
21276;BME280;36472;52.170;20.884;2023-02-19T11:36:33;99942.34;;;7.53;56.77
21276;BME280;36472;52.170;20.884;2023-02-19T11:39:22;99938.31;;;7.33;56.27
21276;BME280;36472;52.170;20.884;2023-02-19T11:45:30;99942.66;;;7.18;58.05
21276;BME280;36472;52.170;20.884;2023-02-19T11:48:36;99944.63;;;7.15;58.42
21276;BME280;36472;52.170;20.884;2023-02-19T11:51:35;99943.13;;;7.25;59.15
21276;BME280;36472;52.170;20.884;2023-02-19T11:54:39;99945.81;;;7.68;56.69
21276;BME280;36472;52.170;20.884;2023-02-19T11:57:30;99945.06;;;7.52;56.17
21276;BME280;36472;52.170;20.884;2023-02-19T12:00:22;99952.53;;;7.43;56.80
21276;BME280;36472;52.170;20.884;2023-02-19T12:03:26;99944.19;;;8.23;54.46
21276;BME280;36472;52.170;20.884;2023-02-19T12:06:16;99945.81;;;9.20;51.45
21276;BME280;36472;52.170;20.884;2023-02-19T12:09:24;99952.72;;;10.24;48.47
21276;BME280;36472;52.170;20.884;2023-02-19T12:12:35;99970.19;;;9.48;49.94
21276;BME280;36472;52.170;20.884;2023-02-19T12:15:26;99975.78;;;8.76;51.91
21276;BME280;36472;52.170;20.884;2023-02-19T12:18:21;99964.09;;;9.22;51.62
21276;BME280;36472;52.170;20.884;2023-02-19T12:21:08;99972.91;;;9.21;51.49
21276;BME280;36472;52.170;20.884;2023-02-19T12:24:39;99975.75;;;8.90;51.57
21276;BME280;36472;52.170;20.884;2023-02-19T12:27:27;99981.78;;;8.78;51.86
21276;BME280;36472;52.170;20.884;2023-02-19T12:30:27;99971.25;;;8.92;50.55
21276;BME280;36472;52.170;20.884;2023-02-19T12:36:34;99987.66;;;9.87;49.29
21276;BME280;36472;52.170;20.884;2023-02-19T12:39:19;99986.47;;;9.53;49.93
21276;BME280;36472;52.170;20.884;2023-02-19T12:42:02;99984.31;;;9.20;51.03
21276;BME280;36472;52.170;20.884;2023-02-19T12:44:47;99997.06;;;8.98;51.47
21276;BME280;36472;52.170;20.884;2023-02-19T12:47:27;99992.06;;;8.81;52.03
21276;BME280;36472;52.170;20.884;2023-02-19T12:50:05;99996.97;;;8.73;51.37
21276;BME280;36472;52.170;20.884;2023-02-19T12:52:40;99998.03;;;8.56;51.84
21276;BME280;36472;52.170;20.884;2023-02-19T12:55:21;99991.47;;;8.49;51.03
21276;BME280;36472;52.170;20.884;2023-02-19T12:57:54;99991.94;;;8.41;51.41
21276;BME280;36472;52.170;20.884;2023-02-19T13:00:34;100000.97;;;8.08;51.38
21276;BME280;36472;52.170;20.884;2023-02-19T13:03:13;100004.97;;;7.85;52.63
21276;BME280;36472;52.170;20.884;2023-02-19T13:05:53;100003.16;;;7.57;52.33
21276;BME280;36472;52.170;20.884;2023-02-19T13:08:33;100014.31;;;7.44;53.57
21276;BME280;36472;52.170;20.884;2023-02-19T13:11:21;100006.53;;;7.28;54.20
21276;BME280;36472;52.170;20.884;2023-02-19T13:13:57;100011.94;;;7.25;54.56
21276;BME280;36472;52.170;20.884;2023-02-19T13:16:28;100008.91;;;7.17;54.60
21276;BME280;36472;52.170;20.884;2023-02-19T13:19:03;100009.56;;;7.21;54.36
21276;BME280;36472;52.170;20.884;2023-02-19T13:21:36;100025.97;;;7.08;54.86
21276;BME280;36472;52.170;20.884;2023-02-19T13:24:27;100020.56;;;7.11;55.76
21276;BME280;36472;52.170;20.884;2023-02-19T13:27:12;100033.06;;;7.06;55.99
21276;BME280;36472;52.170;20.884;2023-02-19T13:33:02;100028.53;;;6.94;56.28
21276;BME280;36472;52.170;20.884;2023-02-19T13:36:03;100031.38;;;6.89;56.37
21276;BME280;36472;52.170;20.884;2023-02-19T13:38:39;100038.47;;;6.87;57.26
21276;BME280;36472;52.170;20.884;2023-02-19T13:41:25;100030.03;;;6.82;57.88
21276;BME280;36472;52.170;20.884;2023-02-19T13:44:01;100031.81;;;6.82;57.12
21276;BME280;36472;52.170;20.884;2023-02-19T13:46:39;100041.91;;;6.88;57.58
21276;BME280;36472;52.170;20.884;2023-02-19T13:49:47;100043.09;;;6.82;56.94
21276;BME280;36472;52.170;20.884;2023-02-19T13:52:39;100050.84;;;6.84;56.70
21276;BME280;36472;52.170;20.884;2023-02-19T13:55:48;100057.69;;;6.70;55.83